createdAt,value
2018-05-07T00:01:06.326Z,82.73
2018-05-07T00:02:06.258Z,83.87
2018-05-07T00:03:59.182Z,83.59
2018-05-07T00:04:59.195Z,84.64
2018-05-07T00:06:52.145Z,84.45
2018-05-07T00:07:52.156Z,84.88
2018-05-07T00:09:45.097Z,85.41
2018-05-07T00:10:45.096Z,85.55
2018-05-07T00:12:38.025Z,85.17
2018-05-07T00:13:38.043Z,86.51
2018-05-07T00:15:30.994Z,85.27
2018-05-07T00:16:31.928Z,86.04
2018-05-07T00:18:23.919Z,85.46
2018-05-07T00:19:23.934Z,86.32
2018-05-07T00:21:16.889Z,86.41
2018-05-07T00:22:16.884Z,86.80
2018-05-07T00:24:09.817Z,86.04
2018-05-07T00:25:09.832Z,86.51
2018-05-07T00:27:02.780Z,86.99
2018-05-07T00:28:02.791Z,87.18
2018-05-07T00:29:55.732Z,87.18
2018-05-07T00:30:55.733Z,86.90
2018-05-07T00:32:48.657Z,87.27
2018-05-07T00:33:48.670Z,87.90
2018-05-07T00:35:41.627Z,88.38
2018-05-07T00:36:41.625Z,88.29
2018-05-07T00:38:34.557Z,88.86
2018-05-07T00:39:34.564Z,88.29
2018-05-07T00:41:27.521Z,89.05
2018-05-07T00:42:27.512Z,88.67
2018-05-07T00:44:20.455Z,88.76
2018-05-07T00:45:20.469Z,89.62
2018-05-07T00:47:13.425Z,89.53
2018-05-07T00:48:13.417Z,90.10
2018-05-07T00:50:06.378Z,90.58
2018-05-07T00:51:06.371Z,90.77
2018-05-07T00:52:59.304Z,91.25
2018-05-07T00:53:59.318Z,91.68
2018-05-07T00:55:52.266Z,92.74
2018-05-07T00:56:52.259Z,91.88
2018-05-07T00:58:45.188Z,92.64
2018-05-07T00:59:45.205Z,92.93
2018-05-07T01:01:38.155Z,91.59
2018-05-07T01:02:38.148Z,91.97
2018-05-07T01:04:31.080Z,92.83
2018-05-07T01:05:31.099Z,92.64
2018-05-07T01:07:24.055Z,92.74
2018-05-07T01:08:24.049Z,93.02
2018-05-07T01:10:16.979Z,93.50
2018-05-07T01:11:16.994Z,93.50
2018-05-07T01:13:09.949Z,93.88
2018-05-07T01:14:09.943Z,93.31
2018-05-07T01:16:02.899Z,93.98
2018-05-07T01:17:02.893Z,93.98
2018-05-07T01:18:55.820Z,93.88
2018-05-07T01:19:55.831Z,94.07
2018-05-07T01:21:48.790Z,93.88
2018-05-07T01:22:48.777Z,93.50
2018-05-07T01:24:41.714Z,93.60
2018-05-07T01:25:41.738Z,93.79
2018-05-07T01:27:34.680Z,93.69
2018-05-07T01:28:34.671Z,93.12
2018-05-07T01:30:27.602Z,93.60
2018-05-07T01:31:27.616Z,94.26
2018-05-07T01:33:20.564Z,93.50
2018-05-07T01:34:20.559Z,93.31
2018-05-07T01:36:13.506Z,93.60
2018-05-07T01:37:13.503Z,93.60
2018-05-07T01:39:06.467Z,93.31
2018-05-07T01:40:06.446Z,93.50
2018-05-07T01:41:59.394Z,93.40
2018-05-07T01:42:59.393Z,93.31
2018-05-07T01:44:52.314Z,93.02
2018-05-07T01:45:52.328Z,92.64
2018-05-07T01:47:45.281Z,92.64
2018-05-07T03:47:26.986Z,99.99
2018-05-07T03:48:26.972Z,99.99
2018-05-07T03:50:19.900Z,99.99
2018-05-07T03:51:19.894Z,99.99
2018-05-07T03:53:12.815Z,99.99
2018-05-07T03:54:12.821Z,99.99
2018-05-07T03:56:05.772Z,99.99
2018-05-07T03:57:05.751Z,99.99
2018-05-07T03:58:58.696Z,99.99
2018-05-07T03:59:58.688Z,99.99
2018-05-07T04:01:51.607Z,99.99
2018-05-07T04:02:51.616Z,99.99
2018-05-07T04:04:44.557Z,99.99
2018-05-07T04:05:44.553Z,99.99
2018-05-07T04:07:37.474Z,99.99
2018-05-07T04:08:37.498Z,99.99
2018-05-07T04:10:30.428Z,99.99
2018-05-07T04:11:30.422Z,99.99
2018-05-07T04:13:23.349Z,99.99
2018-05-07T04:14:23.358Z,99.99
2018-05-07T04:16:16.303Z,99.99
2018-05-07T04:17:16.298Z,99.99
2018-05-07T04:19:09.223Z,99.99
2018-05-07T04:20:09.241Z,99.99
2018-05-07T04:22:02.184Z,99.99
2018-05-07T04:23:02.185Z,99.99
2018-05-07T04:24:55.113Z,99.99
2018-05-07T04:25:55.120Z,99.99
2018-05-07T04:27:48.069Z,99.99
2018-05-07T04:28:48.062Z,99.99
2018-05-07T04:30:41.035Z,99.99
2018-05-07T04:31:41.009Z,99.99
2018-05-07T04:33:34.350Z,99.99
2018-05-07T04:34:34.141Z,99.99
2018-05-07T04:36:26.897Z,99.99
2018-05-07T04:37:26.889Z,99.99
2018-05-07T04:39:19.815Z,99.99
2018-05-07T04:40:19.831Z,99.99
2018-05-07T04:42:12.782Z,99.99
2018-05-07T04:43:12.778Z,99.99
2018-05-07T04:45:05.699Z,99.99
2018-05-07T04:46:05.710Z,99.99
2018-05-07T04:47:58.661Z,99.99
2018-05-07T04:48:58.658Z,99.99
2018-05-07T04:50:51.587Z,99.99
2018-05-07T04:51:51.590Z,99.99
2018-05-07T04:53:44.560Z,99.99
2018-05-07T04:54:44.545Z,99.33
2018-05-07T04:56:37.532Z,97.99
2018-05-07T04:57:37.530Z,98.57
2018-05-07T04:59:30.509Z,98.75
2018-05-07T05:00:30.502Z,99.28
2018-05-07T05:02:23.573Z,98.57
2018-05-07T05:03:23.440Z,97.99
2018-05-07T05:05:16.397Z,97.99
2018-05-07T05:06:16.404Z,98.57
2018-05-07T05:08:09.322Z,99.62
2018-05-07T05:09:09.334Z,99.52
2018-05-07T05:11:02.288Z,99.71
2018-05-07T05:12:02.280Z,99.71
2018-05-07T05:13:55.225Z,99.71
2018-05-07T05:14:55.219Z,99.90
2018-05-07T05:16:48.150Z,99.14
2018-05-07T05:17:48.170Z,99.24
2018-05-07T05:19:41.131Z,98.75
2018-05-07T05:20:41.117Z,98.28
2018-05-07T05:22:34.049Z,98.57
2018-05-07T05:23:34.066Z,98.57
2018-05-07T05:25:27.009Z,98.38
2018-05-07T05:26:27.003Z,98.66
2018-05-07T05:28:19.938Z,97.90
2018-05-07T05:29:19.956Z,97.28
2018-05-07T05:31:12.905Z,97.28
2018-05-07T05:32:12.900Z,96.51
2018-05-07T05:34:05.867Z,96.42
2018-05-07T05:35:05.849Z,96.99
2018-05-07T05:36:58.776Z,96.70
2018-05-07T05:37:58.791Z,96.42
2018-05-07T05:39:51.753Z,95.07
2018-05-07T05:40:51.759Z,96.13
2018-05-07T05:42:44.669Z,94.89
2018-05-07T05:43:44.708Z,94.89
2018-05-07T05:45:37.629Z,95.31
2018-05-07T05:46:37.623Z,94.93
2018-05-07T05:48:30.552Z,93.88
2018-05-07T05:49:30.568Z,94.74
2018-05-07T05:51:23.520Z,94.07
2018-05-07T05:52:23.521Z,93.79
2018-05-07T05:54:16.478Z,92.44
2018-05-07T05:55:16.492Z,90.67
2018-05-07T05:57:09.448Z,91.34
2018-05-07T05:58:09.439Z,90.86
2018-05-07T06:00:02.397Z,91.25
2018-05-07T06:01:02.392Z,91.15
2018-05-07T06:02:55.350Z,90.96
2018-05-07T06:03:55.413Z,91.00
2018-05-07T06:05:48.337Z,86.97
2018-05-07T06:06:48.297Z,83.64
2018-05-07T06:08:41.235Z,72.36
2018-05-07T06:09:41.251Z,69.31
2018-05-07T06:11:34.299Z,62.57
2018-05-07T06:12:34.300Z,60.58
2018-05-07T06:14:27.415Z,56.00
2018-05-07T06:15:27.423Z,55.26
2018-05-07T06:17:20.407Z,54.84
2018-05-07T06:18:20.403Z,56.56
2018-05-07T06:20:13.471Z,59.72
2018-05-07T06:21:13.536Z,60.49
2018-05-07T06:23:06.502Z,59.94
2018-05-07T06:24:06.518Z,57.75
2018-05-07T06:25:59.598Z,55.78
2018-05-07T06:26:59.581Z,55.98
2018-05-07T06:28:52.605Z,55.78
2018-05-07T06:29:52.687Z,54.53
2018-05-07T06:31:45.686Z,54.24
2018-05-07T06:32:45.682Z,53.20
2018-05-07T06:34:38.719Z,51.78
2018-05-07T06:35:38.739Z,52.09
2018-05-07T06:37:31.802Z,51.06
2018-05-07T06:38:31.796Z,50.89
2018-05-07T06:40:24.859Z,49.54
2018-05-07T06:41:24.854Z,49.92
2018-05-07T06:43:17.939Z,49.22
2018-05-07T06:44:17.946Z,48.44
2018-05-07T06:46:12.525Z,49.63
2018-05-07T06:47:10.944Z,48.59
2018-05-07T06:49:03.834Z,48.59
2018-05-07T06:50:03.882Z,47.81
2018-05-07T06:51:56.872Z,46.92
2018-05-07T06:52:56.873Z,48.54
2018-05-07T06:54:49.903Z,48.42
2018-05-07T06:55:49.925Z,49.80
2018-05-07T06:57:42.997Z,49.58
2018-05-07T06:58:42.998Z,49.87
2018-05-07T07:00:36.035Z,49.97
2018-05-07T07:01:36.041Z,49.29
2018-05-07T07:03:29.096Z,48.81
2018-05-07T07:04:29.094Z,48.74
2018-05-07T07:06:22.159Z,49.70
2018-05-07T07:07:22.156Z,48.44
2018-05-07T07:09:15.182Z,48.61
2018-05-07T07:10:15.203Z,48.83
2018-05-07T07:12:08.266Z,49.58
2018-05-07T07:13:08.260Z,49.49
2018-05-07T07:15:01.296Z,47.55
2018-05-07T07:16:01.316Z,49.58
2018-05-07T07:17:54.382Z,48.35
2018-05-07T07:18:54.378Z,48.25
2018-05-07T07:20:47.441Z,47.64
2018-05-07T07:21:47.438Z,47.06
2018-05-07T07:23:40.472Z,46.53
2018-05-07T07:24:40.503Z,47.33
2018-05-07T07:26:33.532Z,48.08
2018-05-07T07:27:33.535Z,48.25
2018-05-07T07:29:26.578Z,48.47
2018-05-07T07:30:26.597Z,47.41
2018-05-07T07:32:19.647Z,46.90
2018-05-07T07:33:19.648Z,47.79
2018-05-07T07:35:12.602Z,48.30
2018-05-07T07:36:12.620Z,46.84
2018-05-07T07:38:05.660Z,46.61
2018-05-07T07:39:05.651Z,47.38
2018-05-07T07:40:58.707Z,48.44
2018-05-07T07:41:58.710Z,48.06
2018-05-07T07:43:51.664Z,48.25
2018-05-07T07:44:51.685Z,48.35
2018-05-07T07:46:44.670Z,50.09
2018-05-07T07:47:44.668Z,49.39
2018-05-07T07:49:37.621Z,50.13
2018-05-07T07:50:37.647Z,50.50
2018-05-07T07:52:30.631Z,50.69
2018-05-07T07:53:30.687Z,51.65
2018-05-07T07:55:23.564Z,51.65
2018-05-07T07:56:23.586Z,52.81
2018-05-07T07:58:16.557Z,54.05
2018-05-07T07:59:16.560Z,54.24
2018-05-07T08:01:09.515Z,52.89
2018-05-07T08:02:09.520Z,52.40
2018-05-07T08:04:02.463Z,53.88
2018-05-07T08:05:02.504Z,53.01
2018-05-07T08:06:56.069Z,54.05
2018-05-07T08:07:55.489Z,53.83
2018-05-07T08:09:48.439Z,55.36
2018-05-07T08:10:48.482Z,56.30
2018-05-07T08:12:41.541Z,56.33
2018-05-07T08:13:41.541Z,55.82
2018-05-07T08:15:34.546Z,56.79
2018-05-07T08:16:34.641Z,55.44
2018-05-07T08:18:28.186Z,56.79
2018-05-07T08:19:28.128Z,56.81
2018-05-07T08:21:21.177Z,54.88
2018-05-07T08:22:21.199Z,55.66
2018-05-07T08:24:15.643Z,55.66
2018-05-07T08:25:15.664Z,56.62
2018-05-07T08:27:08.738Z,55.46
2018-05-07T08:28:08.721Z,54.76
2018-05-07T08:30:01.759Z,55.15
2018-05-07T08:31:01.857Z,56.40
2018-05-07T08:32:54.778Z,58.33
2018-05-07T08:33:54.843Z,57.27
2018-05-07T08:35:47.810Z,58.62
2018-05-07T08:36:47.824Z,58.72
2018-05-07T08:38:40.838Z,56.14
2018-05-07T08:39:40.851Z,54.79
2018-05-07T08:41:33.904Z,54.72
2018-05-07T08:42:33.894Z,54.62
2018-05-07T08:44:26.939Z,54.72
2018-05-07T08:45:26.952Z,53.95
2018-05-07T08:47:20.014Z,54.91
2018-05-07T08:48:20.016Z,54.43
2018-05-07T08:50:13.142Z,55.81
2018-05-07T08:51:13.233Z,54.62
2018-05-07T08:53:06.274Z,55.30
2018-05-07T08:54:06.159Z,56.74
2018-05-07T08:55:59.167Z,56.07
2018-05-07T08:56:59.181Z,56.74
2018-05-07T08:58:52.235Z,55.59
2018-05-07T08:59:52.239Z,55.30
2018-05-07T09:01:45.293Z,57.42
2018-05-07T09:02:45.283Z,57.81
2018-05-07T09:04:38.437Z,56.36
2018-05-07T09:05:38.437Z,56.36
2018-05-07T09:07:31.509Z,57.74
2018-05-07T09:08:31.498Z,58.03
2018-05-07T09:10:24.946Z,56.20
2018-05-07T09:11:24.985Z,57.06
2018-05-07T09:13:18.532Z,54.17
2018-05-07T09:14:18.533Z,52.81
2018-05-07T09:16:11.571Z,55.16
2018-05-07T09:17:11.586Z,52.55
2018-05-07T09:19:04.652Z,52.07
2018-05-07T09:20:04.675Z,53.52
2018-05-07T09:21:57.894Z,52.07
2018-05-07T09:22:57.706Z,51.87
2018-05-07T09:24:50.801Z,50.91
2018-05-07T09:25:50.805Z,49.49
2018-05-07T09:27:43.748Z,50.74
2018-05-07T09:28:43.732Z,49.87
2018-05-07T09:30:36.741Z,49.90
2018-05-07T09:31:36.772Z,51.44
2018-05-07T09:33:29.830Z,53.79
2018-05-07T09:34:29.818Z,54.95
2018-05-07T09:36:22.755Z,49.54
2018-05-07T09:37:22.772Z,48.44
2018-05-07T09:39:15.736Z,48.83
2018-05-07T09:40:15.739Z,47.48
2018-05-07T09:42:08.708Z,47.31
2018-05-07T09:43:08.713Z,46.83
2018-05-07T09:45:02.135Z,47.31
2018-05-07T09:46:02.161Z,46.53
2018-05-07T09:47:55.121Z,46.17
2018-05-07T09:48:55.123Z,46.94
2018-05-07T09:50:48.133Z,45.68
2018-05-07T09:51:48.154Z,46.36
2018-05-07T09:53:41.207Z,46.84
2018-05-07T09:54:41.204Z,45.98
2018-05-07T09:56:34.160Z,45.59
2018-05-07T09:57:34.171Z,45.78
2018-05-07T09:59:27.479Z,45.47
2018-05-07T10:00:27.484Z,44.21
2018-05-07T10:02:20.681Z,46.66
2018-05-07T10:03:20.449Z,45.49
2018-05-07T10:05:13.389Z,45.10
2018-05-07T10:06:13.412Z,45.81
2018-05-07T10:08:06.370Z,45.42
2018-05-07T10:09:06.367Z,43.58
2018-05-07T10:10:59.312Z,43.77
2018-05-07T10:11:59.334Z,43.87
2018-05-07T10:13:52.312Z,44.45
2018-05-07T10:14:52.300Z,45.61
2018-05-07T10:16:45.271Z,45.40
2018-05-07T10:17:45.262Z,47.64
2018-05-07T10:19:38.231Z,45.30
2018-05-07T10:20:38.229Z,45.22
2018-05-07T10:22:31.194Z,45.71
2018-05-07T10:23:31.247Z,47.45
2018-05-07T10:25:24.345Z,46.84
2018-05-07T10:26:24.183Z,46.97
2018-05-07T10:28:17.280Z,46.97
2018-05-07T10:29:17.198Z,46.39
2018-05-07T10:31:10.099Z,45.13
2018-05-07T10:32:10.102Z,46.48
2018-05-07T10:34:03.082Z,45.68
2018-05-07T10:35:03.046Z,46.19
2018-05-07T10:36:56.070Z,46.00
2018-05-07T10:37:56.023Z,46.19
2018-05-07T10:39:48.968Z,45.71
2018-05-07T10:40:48.968Z,45.32
2018-05-07T10:42:41.961Z,45.13
2018-05-07T10:43:41.945Z,45.71
2018-05-07T10:45:34.894Z,43.95
2018-05-07T10:46:34.969Z,43.95
2018-05-07T10:48:27.851Z,43.65
2018-05-07T10:49:27.858Z,45.81
2018-05-07T10:51:20.798Z,46.08
2018-05-07T10:52:20.822Z,47.24
2018-05-07T10:54:13.794Z,48.03
2018-05-07T10:55:13.784Z,46.39
2018-05-07T10:57:06.727Z,45.92
2018-05-07T10:58:06.751Z,45.44
2018-05-07T10:59:59.716Z,45.44
2018-05-07T11:00:59.714Z,46.12
2018-05-07T11:02:52.658Z,43.43
2018-05-07T11:03:53.429Z,41.88
2018-05-07T11:05:45.636Z,43.50
2018-05-07T11:06:45.646Z,44.76
2018-05-07T11:08:38.625Z,46.60
2018-05-07T11:09:38.605Z,47.16
2018-05-07T11:11:31.580Z,45.32
2018-05-07T11:12:31.588Z,44.06
2018-05-07T11:14:24.558Z,45.22
2018-05-07T11:15:24.561Z,45.92
2018-05-07T11:17:17.493Z,48.15
2018-05-07T11:18:17.523Z,45.34
2018-05-07T11:20:10.975Z,46.89
2018-05-07T11:21:10.976Z,46.12
2018-05-07T11:23:03.920Z,46.53
2018-05-07T11:24:03.946Z,46.31
2018-05-07T11:25:56.906Z,46.72
2018-05-07T11:26:56.906Z,45.07
2018-05-07T11:28:49.875Z,42.75
2018-05-07T11:29:49.869Z,42.65
2018-05-07T11:31:42.827Z,43.02
2018-05-07T11:32:42.839Z,42.24
2018-05-07T11:34:35.803Z,42.26
2018-05-07T11:35:35.804Z,42.36
2018-05-07T11:37:28.752Z,43.13
2018-05-07T11:38:28.778Z,45.47
2018-05-07T11:40:21.744Z,42.92
2018-05-07T11:41:21.736Z,45.44
2018-05-07T11:43:14.733Z,45.25
2018-05-07T11:44:14.755Z,45.64
2018-05-07T11:46:07.811Z,43.72
2018-05-07T11:47:07.809Z,45.75
2018-05-07T11:49:01.268Z,42.17
2018-05-07T11:50:01.273Z,41.17
2018-05-07T11:51:54.319Z,44.30
2018-05-07T11:52:54.236Z,45.05
2018-05-07T11:54:47.199Z,46.33
2018-05-07T11:55:47.198Z,45.07
2018-05-07T11:57:40.147Z,42.92
2018-05-07T11:58:40.170Z,42.24
2018-05-07T12:00:33.141Z,43.50
2018-05-07T12:01:33.128Z,42.17
2018-05-07T12:03:26.086Z,46.92
2018-05-07T12:04:26.111Z,44.10
2018-05-07T12:06:19.086Z,45.39
2018-05-07T12:07:19.076Z,44.23
2018-05-07T12:09:12.039Z,44.92
2018-05-07T12:10:12.040Z,43.08
2018-05-07T12:12:04.984Z,45.61
2018-05-07T12:13:05.006Z,43.66
2018-05-07T12:14:57.962Z,41.12
2018-05-07T12:15:58.064Z,43.74
2018-05-07T12:17:51.404Z,46.58
2018-05-07T12:18:51.428Z,43.95
2018-05-07T12:20:44.396Z,43.47
2018-05-07T12:21:44.395Z,41.22
2018-05-07T12:23:37.342Z,44.90
2018-05-07T12:24:37.355Z,46.38
2018-05-07T12:26:30.372Z,40.95
2018-05-07T12:27:30.325Z,42.50
2018-05-07T12:29:23.289Z,45.12
2018-05-07T12:30:23.297Z,43.86
2018-05-07T12:32:16.731Z,42.60
2018-05-07T12:33:16.751Z,43.57
2018-05-07T12:35:09.712Z,45.51
2018-05-07T12:36:09.718Z,45.89
2018-05-07T12:38:02.672Z,41.63
2018-05-07T12:39:02.692Z,41.12
2018-05-07T12:40:55.649Z,42.94
2018-05-07T12:41:55.647Z,44.51
2018-05-07T12:43:48.591Z,43.66
2018-05-07T12:44:48.801Z,44.23
2018-05-07T12:46:41.993Z,46.07
2018-05-07T12:47:41.581Z,46.19
2018-05-07T12:49:34.546Z,46.38
2018-05-07T12:50:34.550Z,46.38
2018-05-07T12:52:27.544Z,46.67
2018-05-07T12:53:27.519Z,44.27
2018-05-07T12:55:20.480Z,41.16
2018-05-07T12:56:20.485Z,41.74
2018-05-07T12:58:13.426Z,44.07
2018-05-07T12:59:13.452Z,41.26
2018-05-07T13:01:06.907Z,44.24
2018-05-07T13:02:06.910Z,42.71
2018-05-07T13:03:59.856Z,42.03
2018-05-07T13:04:59.874Z,42.13
2018-05-07T13:06:52.890Z,43.59
2018-05-07T13:07:52.887Z,45.72
2018-05-07T13:09:45.836Z,45.34
2018-05-07T13:10:45.858Z,41.94
2018-05-07T13:12:38.825Z,43.02
2018-05-07T13:13:38.828Z,44.37
2018-05-07T13:15:31.779Z,40.29
2018-05-07T13:16:31.801Z,39.80
2018-05-07T13:18:24.765Z,44.85
2018-05-07T13:19:24.770Z,44.07
2018-05-07T13:21:17.751Z,42.91
2018-05-07T13:22:17.742Z,39.90
2018-05-07T13:24:10.678Z,39.41
2018-05-07T13:25:10.721Z,40.79
2018-05-07T13:27:03.670Z,43.20
2018-05-07T13:28:03.668Z,40.97
2018-05-07T13:29:57.160Z,41.94
2018-05-07T13:30:56.635Z,42.23
2018-05-07T13:32:49.609Z,43.10
2018-05-07T13:33:49.602Z,42.81
2018-05-07T13:35:43.611Z,42.81
2018-05-07T13:36:43.095Z,43.71
2018-05-07T13:38:36.030Z,40.21
2018-05-07T13:39:36.035Z,41.47
2018-05-07T13:41:29.005Z,43.59
2018-05-07T13:42:29.004Z,43.01
2018-05-07T13:44:21.951Z,40.87
2018-05-07T13:45:21.970Z,40.79
2018-05-07T13:47:15.000Z,39.53
2018-05-07T13:48:15.005Z,42.25
2018-05-07T13:50:08.045Z,40.52
2018-05-07T13:51:08.078Z,42.08
2018-05-07T13:53:01.117Z,43.24
2018-05-07T13:54:01.126Z,40.69
2018-05-07T13:55:54.155Z,42.13
2018-05-07T13:56:54.204Z,43.59
2018-05-07T13:58:47.238Z,42.13
2018-05-07T13:59:47.240Z,40.29
2018-05-07T14:01:40.296Z,39.34
2018-05-07T14:02:40.383Z,39.43
2018-05-07T14:04:33.244Z,40.91
2018-05-07T14:05:33.263Z,41.59
2018-05-07T14:07:26.229Z,43.22
2018-05-07T14:08:26.250Z,42.35
2018-05-07T14:10:19.180Z,41.86
2018-05-07T14:11:19.204Z,42.44
2018-05-07T14:13:12.168Z,41.18
2018-05-07T14:14:12.172Z,41.18
2018-05-07T14:16:05.116Z,41.28
2018-05-07T14:17:05.138Z,39.72
2018-05-07T14:18:58.101Z,41.67
2018-05-07T14:19:58.118Z,39.92
2018-05-07T14:21:51.102Z,40.99
2018-05-07T14:22:51.075Z,39.14
2018-05-07T14:24:44.025Z,40.58
2018-05-07T14:25:44.037Z,39.80
2018-05-07T14:27:37.002Z,41.16
2018-05-07T14:28:37.007Z,39.90
2018-05-07T14:30:29.948Z,42.03
2018-05-07T14:31:29.974Z,42.43
2018-05-07T14:33:23.030Z,41.28
2018-05-07T14:34:22.947Z,42.52
2018-05-07T14:36:15.895Z,39.43
2018-05-07T14:37:15.919Z,36.99
2018-05-07T14:39:08.904Z,37.98
2018-05-07T14:40:08.893Z,38.54
2018-05-07T14:42:01.861Z,40.67
2018-05-07T14:43:01.858Z,40.60
2018-05-07T14:44:54.806Z,41.57
2018-05-07T14:45:54.823Z,41.55
2018-05-07T14:47:47.785Z,38.46
2018-05-07T14:48:47.790Z,40.09
2018-05-07T14:50:40.737Z,41.06
2018-05-07T14:51:40.757Z,40.29
2018-05-07T14:53:33.722Z,39.80
2018-05-07T14:54:33.722Z,39.22
2018-05-07T14:56:26.663Z,42.23
2018-05-07T14:57:26.689Z,40.97
2018-05-07T14:59:19.648Z,39.12
2018-05-07T15:00:19.655Z,39.72
2018-05-07T15:02:12.625Z,38.64
2018-05-07T15:03:12.622Z,39.43
2018-05-07T15:05:05.571Z,41.47
2018-05-07T15:06:05.593Z,42.33
2018-05-07T15:07:58.557Z,39.80
2018-05-07T15:08:58.561Z,41.64
2018-05-07T15:10:51.514Z,41.64
2018-05-07T15:11:51.528Z,40.00
2018-05-07T15:13:44.585Z,39.61
2018-05-07T15:14:44.500Z,40.19
2018-05-07T15:16:37.451Z,40.00
2018-05-07T15:17:37.463Z,39.70
2018-05-07T15:19:30.426Z,39.22
2018-05-07T15:20:30.429Z,39.22
2018-05-07T15:22:23.394Z,42.61
2018-05-07T15:23:23.431Z,40.77
2018-05-07T15:25:16.339Z,36.50
2018-05-07T15:26:16.357Z,37.57
2018-05-07T15:28:09.318Z,38.54
2018-05-07T15:29:09.354Z,38.44
2018-05-07T15:31:02.273Z,36.99
2018-05-07T15:32:02.292Z,39.12
2018-05-07T15:33:55.257Z,40.29
2018-05-07T15:34:55.262Z,40.75
2018-05-07T15:36:48.209Z,37.94
2018-05-07T15:37:48.230Z,38.44
2018-05-07T15:39:41.190Z,40.00
2018-05-07T15:40:41.198Z,39.39
2018-05-07T15:42:34.167Z,39.70
2018-05-07T15:43:34.163Z,39.49
2018-05-07T15:45:27.111Z,39.20
2018-05-07T15:46:27.136Z,38.52
2018-05-07T15:48:20.100Z,39.20
2018-05-07T15:49:20.157Z,38.71
2018-05-07T15:51:13.045Z,37.84
2018-05-07T15:52:13.062Z,39.20
2018-05-07T15:54:06.028Z,40.08
2018-05-07T15:55:06.031Z,39.98
2018-05-07T15:56:58.977Z,39.39
2018-05-07T15:57:59.002Z,39.78
2018-05-07T15:59:51.968Z,41.53
2018-05-07T16:00:52.028Z,41.82
2018-05-07T16:02:44.947Z,39.98
2018-05-07T16:03:44.931Z,39.49
2018-05-07T16:05:37.878Z,39.88
2018-05-07T16:06:37.892Z,39.18
2018-05-07T16:08:30.858Z,39.37
2018-05-07T16:09:30.868Z,39.18
2018-05-07T16:11:23.800Z,38.79
2018-05-07T16:12:23.822Z,38.02
2018-05-07T16:14:16.784Z,37.73
2018-05-07T16:15:16.880Z,38.13
2018-05-07T16:17:09.732Z,38.52
2018-05-07T16:18:09.762Z,39.11
2018-05-07T16:20:02.735Z,40.25
2018-05-07T16:21:02.720Z,39.57
2018-05-07T16:22:55.726Z,40.91
2018-05-07T16:23:55.694Z,40.61
2018-05-07T16:25:48.730Z,40.03
2018-05-07T16:26:48.662Z,40.13
2018-05-07T16:28:41.618Z,39.84
2018-05-07T16:29:41.624Z,41.20
2018-05-07T16:31:34.593Z,41.39
2018-05-07T16:32:34.619Z,40.13
2018-05-07T16:34:27.581Z,40.03
2018-05-07T16:35:27.583Z,41.00
2018-05-07T16:37:20.516Z,41.78
2018-05-07T16:38:20.544Z,40.81
2018-05-07T16:40:13.520Z,40.91
2018-05-07T16:41:13.518Z,39.55
2018-05-07T16:43:06.469Z,39.26
2018-05-07T16:44:06.467Z,38.48
2018-05-07T16:45:59.436Z,39.36
2018-05-07T16:46:59.438Z,40.42
2018-05-07T16:48:52.420Z,41.27
2018-05-07T16:49:52.399Z,41.08
2018-05-07T16:51:45.339Z,42.05
2018-05-07T16:52:45.376Z,40.89
2018-05-07T16:54:38.331Z,40.99
2018-05-07T16:55:38.326Z,39.62
2018-05-07T16:57:31.271Z,40.89
2018-05-07T16:58:31.284Z,40.89
2018-05-07T17:00:24.246Z,40.89
2018-05-07T17:01:24.263Z,41.74
2018-05-07T17:03:17.218Z,41.93
2018-05-07T17:04:17.242Z,42.90
2018-05-07T17:06:10.154Z,41.83
2018-05-07T17:07:10.176Z,41.25
2018-05-07T17:09:03.137Z,41.74
2018-05-07T17:10:03.146Z,42.61
2018-05-07T17:11:56.076Z,42.80
2018-05-07T17:12:56.094Z,42.61
2018-05-07T17:14:49.070Z,43.00
2018-05-07T17:15:49.066Z,43.00
2018-05-07T17:17:42.011Z,42.03
2018-05-07T17:18:42.035Z,43.87
2018-05-07T17:20:35.108Z,43.85
2018-05-07T17:21:35.197Z,44.06
2018-05-07T17:23:27.979Z,43.29
2018-05-07T17:24:27.961Z,44.04
2018-05-07T17:26:20.907Z,45.01
2018-05-07T17:27:20.929Z,44.23
2018-05-07T17:29:13.901Z,44.53
2018-05-07T17:30:13.891Z,43.37
2018-05-07T17:32:06.840Z,44.04
2018-05-07T17:33:06.854Z,45.20
2018-05-07T17:34:59.818Z,45.40
2018-05-07T17:35:59.818Z,44.62
2018-05-07T17:37:52.757Z,44.33
2018-05-07T17:38:52.776Z,45.01
2018-05-07T17:40:45.738Z,46.53
2018-05-07T17:41:45.779Z,45.95
2018-05-07T17:43:38.725Z,46.15
2018-05-07T17:44:38.722Z,45.66
2018-05-07T17:46:31.663Z,45.76
2018-05-07T17:47:31.684Z,46.03
2018-05-07T17:49:24.647Z,46.90
2018-05-07T17:50:24.643Z,46.80
2018-05-07T17:52:17.591Z,46.22
2018-05-07T17:53:17.608Z,45.74
2018-05-07T17:55:10.560Z,46.03
2018-05-07T17:56:10.562Z,46.61
2018-05-07T17:58:03.505Z,46.70
2018-05-07T17:59:03.530Z,46.51
2018-05-07T18:00:56.485Z,47.00
2018-05-07T18:01:56.500Z,46.80
2018-05-07T18:03:49.466Z,47.38
2018-05-07T18:04:49.459Z,47.84
2018-05-07T18:06:42.407Z,47.74
2018-05-07T18:07:42.430Z,47.84
2018-05-07T18:09:35.396Z,47.45
2018-05-07T18:10:35.398Z,47.65
2018-05-07T18:12:28.328Z,47.26
2018-05-07T18:13:28.349Z,47.84
2018-05-07T18:15:21.320Z,48.32
2018-05-07T18:16:21.310Z,49.68
2018-05-07T18:18:14.251Z,49.95
2018-05-07T18:19:14.336Z,50.43
2018-05-07T18:21:07.231Z,51.39
2018-05-07T18:22:07.232Z,51.49
2018-05-07T18:24:00.191Z,53.13
2018-05-07T18:25:00.188Z,54.00
2018-05-07T18:26:53.124Z,54.27
2018-05-07T18:27:53.149Z,54.17
2018-05-07T18:29:46.154Z,55.04
2018-05-07T18:30:46.107Z,54.46
2018-05-07T18:32:39.048Z,54.55
2018-05-07T18:33:39.067Z,54.55
2018-05-07T18:35:32.029Z,54.46
2018-05-07T18:36:32.030Z,55.10
2018-05-07T18:38:24.962Z,54.82
2018-05-07T18:39:24.987Z,55.01
2018-05-07T18:41:17.951Z,55.01
2018-05-07T18:42:17.952Z,55.10
2018-05-07T18:44:10.900Z,54.72
2018-05-07T18:45:10.901Z,54.91
2018-05-07T18:47:03.841Z,55.40
2018-05-07T18:48:03.857Z,55.18
2018-05-07T18:49:56.815Z,55.01
2018-05-07T18:50:56.815Z,55.36
2018-05-07T18:52:49.749Z,54.88
2018-05-07T18:53:49.771Z,55.36
2018-05-07T18:55:42.733Z,55.56
2018-05-07T18:56:42.730Z,56.52
2018-05-07T18:58:35.672Z,57.78
2018-05-07T18:59:35.692Z,56.72
2018-05-07T19:01:28.646Z,56.43
2018-05-07T19:02:28.648Z,57.46
2018-05-07T19:04:21.609Z,57.75
2018-05-07T19:05:21.619Z,58.23
2018-05-07T19:07:14.546Z,58.81
2018-05-07T19:08:14.568Z,59.20
2018-05-07T19:10:07.537Z,59.20
2018-05-07T19:11:07.529Z,60.26
2018-05-07T19:13:00.477Z,60.23
2018-05-07T19:14:00.486Z,60.52
2018-05-07T19:15:53.470Z,60.80
2018-05-07T19:16:53.450Z,60.80
2018-05-07T19:18:46.389Z,61.00
2018-05-07T19:19:46.453Z,61.19
2018-05-07T19:21:39.369Z,61.87
2018-05-07T19:22:39.359Z,61.10
2018-05-07T19:24:32.327Z,60.71
2018-05-07T19:25:32.320Z,60.61
2018-05-07T19:27:25.260Z,60.80
2018-05-07T19:28:25.276Z,61.68
2018-05-07T19:30:18.230Z,61.25
2018-05-07T19:31:18.232Z,61.65
2018-05-07T19:33:11.172Z,61.65
2018-05-07T19:34:11.185Z,60.39
2018-05-07T19:36:04.147Z,62.00
2018-05-07T19:37:04.148Z,62.00
2018-05-07T19:38:57.079Z,63.92
2018-05-07T19:39:57.215Z,63.82
2018-05-07T19:41:50.049Z,63.64
2018-05-07T19:42:50.051Z,64.79
2018-05-07T19:44:43.009Z,64.37
2018-05-07T19:45:43.010Z,65.33
2018-05-07T19:47:35.945Z,65.05
2018-05-07T19:48:35.986Z,65.24
2018-05-07T19:50:28.994Z,63.34
2018-05-07T19:51:28.915Z,63.73
2018-05-07T19:53:21.863Z,63.44
2018-05-07T19:54:21.871Z,63.82
2018-05-07T19:56:14.840Z,63.54
2018-05-07T19:57:14.831Z,63.02
2018-05-07T19:59:07.771Z,62.45
2018-05-07T20:00:07.788Z,62.35
2018-05-07T20:02:00.738Z,61.97
2018-05-07T20:03:00.735Z,61.39
2018-05-07T20:04:53.716Z,61.68
2018-05-07T20:05:53.777Z,61.77
2018-05-07T20:07:46.734Z,61.00
2018-05-07T20:08:46.753Z,61.58
2018-05-07T20:10:39.717Z,61.19
2018-05-07T20:11:39.714Z,61.58
2018-05-07T20:13:32.645Z,60.42
2018-05-07T20:14:32.664Z,60.52
2018-05-07T20:16:25.620Z,59.85
2018-05-07T20:17:25.641Z,59.85
2018-05-07T20:19:18.577Z,59.56
2018-05-07T20:20:18.575Z,59.66
2018-05-07T20:22:11.528Z,60.62
2018-05-07T20:23:11.539Z,60.52
2018-05-07T20:25:04.483Z,61.00
2018-05-07T20:26:04.485Z,61.00
2018-05-07T20:27:57.436Z,60.72
2018-05-07T20:28:57.436Z,60.42
2018-05-07T20:30:50.400Z,60.39
2018-05-07T20:31:50.404Z,60.49